createdAt,value
2022-11-03T00:01:34.671Z,96403.03
2022-11-03T00:04:02.412Z,96403.72
2022-11-03T00:06:30.079Z,96397.38
2022-11-03T00:09:01.143Z,96408.63
2022-11-03T00:11:29.289Z,96389.06
2022-11-03T00:13:57.791Z,96394.28
2022-11-03T00:16:25.448Z,96345.72
2022-11-03T00:18:53.372Z,96357.22
2022-11-03T00:21:21.081Z,96377.00
2022-11-03T00:23:49.202Z,96239.97
2022-11-03T00:26:20.806Z,96370.41
2022-11-03T00:28:52.464Z,96360.75
2022-11-03T00:31:22.136Z,96364.63
2022-11-03T00:33:50.293Z,96334.72
2022-11-03T00:36:20.625Z,96363.81
2022-11-03T00:38:48.744Z,96280.31
2022-11-03T00:41:20.624Z,96355.88
2022-11-03T00:43:49.843Z,96348.25
2022-11-03T00:46:18.135Z,96346.38
2022-11-03T00:48:46.075Z,96340.31
2022-11-03T00:51:16.527Z,96344.31
2022-11-03T00:53:45.668Z,96303.34
2022-11-03T00:56:19.679Z,96340.41
2022-11-03T00:58:47.836Z,96298.38
2022-11-03T01:01:17.610Z,96337.72
2022-11-03T01:04:06.822Z,96343.50
2022-11-03T01:06:50.672Z,96308.75
2022-11-03T01:09:18.628Z,96303.78
2022-11-03T01:11:58.539Z,96323.03
2022-11-03T01:14:28.543Z,96319.41
2022-11-03T01:16:56.494Z,96289.22
2022-11-03T01:19:25.257Z,96324.63
2022-11-03T01:21:53.552Z,96323.81
2022-11-03T01:24:21.742Z,96317.47
2022-11-03T01:26:51.002Z,96275.00
2022-11-03T01:29:19.003Z,96323.19
2022-11-03T01:31:46.707Z,96322.09
2022-11-03T01:34:16.467Z,96322.38
2022-11-03T01:36:44.844Z,96324.31
2022-11-03T01:39:13.974Z,96299.25
2022-11-03T01:41:43.079Z,96290.03
2022-11-03T01:44:34.179Z,96310.84
2022-11-03T01:47:16.154Z,96306.78
2022-11-03T01:49:48.072Z,96311.91
2022-11-03T01:52:20.934Z,96307.28
2022-11-03T01:54:52.739Z,96295.78
2022-11-03T01:57:25.539Z,96297.59
2022-11-03T01:59:55.997Z,96282.69
2022-11-03T02:02:27.341Z,96291.31
2022-11-03T02:04:56.689Z,96282.69
2022-11-03T02:07:30.078Z,96273.81
2022-11-03T02:09:57.851Z,96280.06
2022-11-03T02:12:25.758Z,96270.13
2022-11-03T02:14:58.959Z,96254.69
2022-11-03T02:17:29.911Z,96281.16
2022-11-03T02:20:01.066Z,96274.13
2022-11-03T02:22:49.853Z,96251.19
2022-11-03T02:25:31.233Z,96270.50
2022-11-03T02:27:59.351Z,96271.94
2022-11-03T02:30:29.645Z,96263.81
2022-11-03T02:33:04.210Z,96242.19
2022-11-03T02:35:38.622Z,96252.69
2022-11-03T02:38:10.712Z,96255.97
2022-11-03T02:40:46.437Z,96255.16
2022-11-03T02:43:16.442Z,96235.78
2022-11-03T02:45:47.799Z,96253.94
2022-11-03T02:48:16.875Z,96239.53
2022-11-03T02:50:45.203Z,96228.28
2022-11-03T02:53:14.057Z,96227.25
2022-11-03T02:55:53.432Z,96225.59
2022-11-03T02:58:29.232Z,96223.22
2022-11-03T03:01:04.034Z,96211.81
2022-11-03T03:03:36.743Z,96134.88
2022-11-03T03:06:09.455Z,96216.16
2022-11-03T03:08:43.950Z,96203.53
2022-11-03T03:11:14.545Z,96199.25
2022-11-03T03:13:45.077Z,96174.66
2022-11-03T03:16:17.656Z,96192.94
2022-11-03T03:18:52.228Z,96104.94
2022-11-03T03:21:25.115Z,96196.47
2022-11-03T03:23:58.483Z,96191.34
2022-11-03T03:26:30.930Z,96183.94
2022-11-03T03:29:03.991Z,96191.78
2022-11-03T03:31:37.879Z,96186.13
2022-11-03T03:34:31.228Z,96184.44
2022-11-03T03:36:59.833Z,96184.91
2022-11-03T03:39:32.732Z,96186.41
2022-11-03T03:42:04.445Z,96190.59
2022-11-03T03:44:33.540Z,96195.16
2022-11-03T03:47:04.851Z,96198.34
2022-11-03T03:49:32.488Z,96194.06
2022-11-03T03:52:00.486Z,96193.72
2022-11-03T03:54:28.147Z,96182.88
2022-11-03T03:57:01.711Z,96178.41
2022-11-03T03:59:31.303Z,96154.88
2022-11-03T04:01:59.575Z,96174.22
2022-11-03T04:04:27.437Z,96179.31
2022-11-03T04:07:15.302Z,96171.88
2022-11-03T04:09:42.916Z,96159.97
2022-11-03T04:12:28.475Z,96165.50
2022-11-03T04:15:14.899Z,96170.09
2022-11-03T04:18:02.930Z,96166.91
2022-11-03T04:20:48.254Z,96170.31
2022-11-03T04:23:15.933Z,96163.16
2022-11-03T04:25:50.710Z,96150.59
2022-11-03T04:28:19.738Z,96131.81
2022-11-03T04:30:48.714Z,96142.41
2022-11-03T04:33:18.408Z,96148.22
2022-11-03T04:35:47.274Z,96142.88
2022-11-03T04:38:24.088Z,96139.72
2022-11-03T04:40:55.158Z,96132.97
2022-11-03T04:43:25.102Z,96133.97
2022-11-03T04:45:54.138Z,96137.81
2022-11-03T04:48:23.518Z,96135.88
2022-11-03T04:50:54.661Z,96134.56
2022-11-03T04:53:23.812Z,96114.78
2022-11-03T04:55:54.162Z,96129.63
2022-11-03T04:58:23.465Z,96127.16
2022-11-03T05:00:54.855Z,96121.63
2022-11-03T05:03:25.403Z,96116.06
2022-11-03T05:05:53.062Z,96107.22
2022-11-03T05:08:22.197Z,96094.59
2022-11-03T05:10:50.757Z,96064.91
2022-11-03T05:13:22.500Z,96087.09
2022-11-03T05:15:52.275Z,96065.81
2022-11-03T05:18:23.436Z,96085.84
2022-11-03T05:20:55.071Z,96082.13
2022-11-03T05:23:23.844Z,96083.88
2022-11-03T05:25:54.252Z,96084.97
2022-11-03T05:28:25.760Z,96075.69
2022-11-03T05:30:54.118Z,96077.00
2022-11-03T05:33:30.936Z,96078.59
2022-11-03T05:36:02.014Z,96073.28
2022-11-03T05:38:33.486Z,96064.91
2022-11-03T05:41:02.218Z,96064.84
2022-11-03T05:43:30.620Z,96066.47
2022-11-03T05:46:02.768Z,96070.81
2022-11-03T05:48:35.325Z,96059.34
2022-11-03T05:51:11.704Z,96051.72
2022-11-03T05:53:43.238Z,96051.97
2022-11-03T05:56:16.986Z,96055.84
2022-11-03T05:58:45.586Z,96057.66
2022-11-03T06:01:17.700Z,96022.88
2022-11-03T06:03:47.538Z,96043.53
2022-11-03T06:06:19.897Z,96045.25
2022-11-03T06:08:48.362Z,95957.59
2022-11-03T06:11:23.811Z,96049.81
2022-11-03T06:13:51.480Z,96051.19
2022-11-03T06:16:38.094Z,96048.09
2022-11-03T06:19:19.515Z,96045.59
2022-11-03T06:21:47.423Z,96051.69
2022-11-03T06:24:16.929Z,96042.03
2022-11-03T06:26:46.535Z,96045.31
2022-11-03T06:29:17.150Z,96048.81
2022-11-03T06:31:47.893Z,96046.81
2022-11-03T06:34:28.819Z,96039.31
2022-11-03T06:36:58.268Z,96041.69
2022-11-03T06:39:26.380Z,96031.09
2022-11-03T06:41:54.151Z,96042.41
2022-11-03T06:44:25.345Z,96036.16
2022-11-03T06:46:55.316Z,96032.59
2022-11-03T06:49:30.560Z,95987.09
2022-11-03T06:52:00.331Z,96031.88
2022-11-03T06:54:27.997Z,96039.00
2022-11-03T06:56:55.692Z,96035.69
2022-11-03T06:59:23.344Z,96038.38
2022-11-03T07:01:55.547Z,96032.97
2022-11-03T07:04:29.038Z,96028.06
2022-11-03T07:07:00.253Z,96007.22
2022-11-03T07:09:28.095Z,96025.03
2022-11-03T07:11:58.025Z,96021.63
2022-11-03T07:14:28.657Z,96010.13
2022-11-03T07:17:00.586Z,96012.75
2022-11-03T07:19:34.106Z,96014.31
2022-11-03T07:22:03.561Z,96009.69
2022-11-03T07:24:33.952Z,96008.13
2022-11-03T07:27:08.535Z,96007.09
2022-11-03T07:29:36.161Z,95961.84
2022-11-03T07:32:10.537Z,95991.16
2022-11-03T07:34:39.570Z,96009.00
2022-11-03T07:37:15.162Z,96010.16
2022-11-03T07:39:42.812Z,95928.94
2022-11-03T07:42:16.460Z,96007.75
2022-11-03T07:44:44.232Z,96005.94
2022-11-03T07:47:14.739Z,96008.88
2022-11-03T07:49:43.817Z,96023.31
2022-11-03T07:52:14.789Z,95999.53
2022-11-03T07:54:42.476Z,95998.53
2022-11-03T07:57:16.815Z,95982.53
2022-11-03T07:59:48.493Z,95977.81
2022-11-03T08:02:30.810Z,95965.31
2022-11-03T08:05:00.101Z,95945.97
2022-11-03T08:07:28.459Z,95952.22
2022-11-03T08:09:56.373Z,95948.34
2022-11-03T08:12:24.266Z,95948.16
2022-11-03T08:14:51.913Z,95946.63
2022-11-03T08:17:19.594Z,95939.59
2022-11-03T08:19:47.244Z,95935.66
2022-11-03T08:22:16.277Z,95937.81
2022-11-03T08:24:44.141Z,95921.84
2022-11-03T08:27:11.827Z,95920.03
2022-11-03T08:29:39.506Z,95912.25
2022-11-03T08:32:07.137Z,95913.06
2022-11-03T08:34:34.769Z,95894.38
2022-11-03T08:37:02.507Z,95909.69
2022-11-03T08:39:32.194Z,95907.66
2022-11-03T08:41:59.852Z,95905.66
2022-11-03T08:44:27.512Z,95900.66
2022-11-03T08:46:55.151Z,95896.47
2022-11-03T08:49:22.805Z,95894.38
2022-11-03T08:51:50.469Z,95869.69
2022-11-03T08:54:18.199Z,95894.63
2022-11-03T08:56:48.843Z,95882.31
2022-11-03T08:59:18.002Z,95881.25
2022-11-03T09:01:45.952Z,95879.94
2022-11-03T09:04:13.746Z,95878.63
2022-11-03T09:06:41.657Z,95879.41
2022-11-03T09:11:58.347Z,95875.75
2022-11-03T09:14:26.000Z,95867.28
2022-11-03T09:16:53.735Z,95856.22
2022-11-03T09:19:21.558Z,95857.56
2022-11-03T09:21:49.261Z,95843.63
2022-11-03T09:24:16.912Z,95843.88
2022-11-03T09:26:44.741Z,95839.94
2022-11-03T09:29:13.771Z,95818.66
2022-11-03T09:31:41.465Z,95837.84
2022-11-03T09:34:09.128Z,95838.31
2022-11-03T09:36:36.771Z,95820.63
2022-11-03T09:39:04.464Z,95836.06
2022-11-03T09:41:55.737Z,95836.50
2022-11-03T09:44:22.546Z,95837.72
2022-11-03T09:46:55.424Z,95831.63
2022-11-03T09:49:26.000Z,95823.13
2022-11-03T09:51:54.117Z,95819.44
2022-11-03T09:54:21.805Z,95825.00
2022-11-03T09:56:49.557Z,95827.28
2022-11-03T09:59:18.671Z,95819.41
2022-11-03T10:01:50.759Z,95818.16
2022-11-03T10:04:22.864Z,95809.13
2022-11-03T10:06:50.572Z,95800.66
2022-11-03T10:09:20.631Z,95798.53
2022-11-03T10:11:48.897Z,95794.00
2022-11-03T10:14:18.935Z,95788.25
2022-11-03T10:16:53.578Z,95694.66
2022-11-03T10:19:21.508Z,95790.94
2022-11-03T10:21:49.207Z,95780.00
2022-11-03T10:24:20.300Z,95780.56
2022-11-03T10:26:49.796Z,95771.56
2022-11-03T10:29:20.873Z,95751.81
2022-11-03T10:31:51.948Z,95771.50
2022-11-03T10:34:28.925Z,95763.03
2022-11-03T10:37:18.205Z,95762.94
2022-11-03T10:39:46.160Z,95763.44
2022-11-03T10:42:22.013Z,95732.44
2022-11-03T10:44:53.023Z,95718.06
2022-11-03T10:47:32.085Z,95752.19
2022-11-03T10:50:00.358Z,95754.34
2022-11-03T10:52:30.420Z,95670.59
2022-11-03T10:55:00.282Z,95750.56
2022-11-03T10:57:28.530Z,95742.47
2022-11-03T10:59:56.858Z,95744.53
2022-11-03T11:02:31.202Z,95716.31
2022-11-03T11:05:01.289Z,95735.22
2022-11-03T11:07:33.697Z,95734.38
2022-11-03T11:10:08.231Z,95737.78
2022-11-03T11:12:36.303Z,95729.00
2022-11-03T11:15:25.118Z,95647.53
2022-11-03T11:17:54.199Z,95730.59
2022-11-03T11:20:34.736Z,95740.59
2022-11-03T11:23:48.920Z,95731.28
2022-11-03T11:26:38.693Z,95727.84
2022-11-03T11:29:45.032Z,95733.13
2022-11-03T11:32:51.124Z,95728.25
2022-11-03T11:36:05.355Z,95718.25
2022-11-03T11:39:10.767Z,95716.78
2022-11-03T11:42:10.255Z,95710.03
2022-11-03T11:44:46.811Z,95702.50
2022-11-03T11:47:26.778Z,95698.78
2022-11-03T11:50:17.005Z,95694.16
2022-11-03T11:52:47.859Z,95687.13
2022-11-03T11:55:21.455Z,95683.06
2022-11-03T11:57:49.416Z,95666.22
2022-11-03T12:00:23.814Z,95681.19
2022-11-03T12:02:52.439Z,95681.59
2022-11-03T12:05:22.710Z,95670.63
2022-11-03T12:07:51.978Z,95651.03
2022-11-03T12:10:23.725Z,95683.75
2022-11-03T12:12:51.529Z,95685.91
2022-11-03T12:15:51.512Z,95650.25
2022-11-03T12:18:38.915Z,95674.78
2022-11-03T12:21:09.681Z,95663.63
2022-11-03T12:23:42.695Z,95670.56
2022-11-03T12:26:20.091Z,95670.88
2022-11-03T12:28:47.736Z,95567.59
2022-11-03T12:31:15.377Z,95624.38
2022-11-03T12:33:43.047Z,95633.47
2022-11-03T12:36:10.929Z,95636.00
2022-11-03T12:38:39.165Z,95629.94
2022-11-03T12:41:24.288Z,95632.97
2022-11-03T12:43:55.888Z,95632.47
2022-11-03T12:46:24.642Z,95632.38
2022-11-03T12:48:52.541Z,95626.03
2022-11-03T12:51:21.879Z,95618.00
2022-11-03T12:53:50.391Z,95629.94
2022-11-03T12:56:19.395Z,95624.47
2022-11-03T12:58:48.294Z,95577.16
2022-11-03T13:01:21.615Z,95601.84
2022-11-03T13:03:50.429Z,95599.00
2022-11-03T13:06:18.300Z,95591.84
2022-11-03T13:08:47.848Z,95593.72
2022-11-03T13:11:37.166Z,95585.00
2022-11-03T13:14:08.566Z,95573.94
2022-11-03T13:16:39.082Z,95577.94
2022-11-03T13:19:06.773Z,95565.91
2022-11-03T13:21:35.907Z,95572.06
2022-11-03T13:24:03.579Z,95561.19
2022-11-03T13:26:31.274Z,95549.81
2022-11-03T13:28:58.999Z,95541.28
2022-11-03T13:31:26.683Z,95537.69
2022-11-03T13:33:55.706Z,95483.72
2022-11-03T13:36:23.509Z,95525.56
2022-11-03T13:38:52.466Z,95532.88
2022-11-03T13:41:20.174Z,95526.03
2022-11-03T13:43:47.857Z,95529.47
2022-11-03T13:46:15.532Z,95517.31
2022-11-03T13:51:32.300Z,95528.47
2022-11-03T13:59:35.918Z,95510.59
2022-11-03T14:04:51.349Z,95506.09
2022-11-03T14:07:20.336Z,95502.94
2022-11-03T14:09:48.032Z,95488.91
2022-11-03T14:12:29.710Z,95489.16
2022-11-03T14:14:57.425Z,95486.72
2022-11-03T14:17:25.260Z,95498.66
2022-11-03T14:19:55.558Z,95498.78
2022-11-03T14:22:30.283Z,95489.97
2022-11-03T14:24:57.971Z,95472.00
2022-11-03T14:27:26.182Z,95504.44
2022-11-03T14:29:54.237Z,95500.94
2022-11-03T14:32:22.110Z,95485.25
2022-11-03T14:34:49.841Z,95466.34
2022-11-03T14:37:17.698Z,95452.78
2022-11-03T14:39:46.833Z,95454.22
2022-11-03T14:42:15.602Z,95454.34
2022-11-03T14:44:46.218Z,95464.56
2022-11-03T14:47:17.517Z,95467.13
2022-11-03T14:49:45.899Z,95466.91
2022-11-03T14:52:14.541Z,95469.16
2022-11-03T14:54:42.966Z,95459.78
2022-11-03T14:57:12.122Z,95462.63
2022-11-03T14:59:40.844Z,95463.41
2022-11-03T15:02:08.540Z,95452.88
2022-11-03T15:04:36.304Z,95455.78
2022-11-03T15:07:03.989Z,95447.09
2022-11-03T15:09:31.657Z,95429.78
2022-11-03T15:11:59.322Z,95385.63
2022-11-03T15:14:29.759Z,95405.75
2022-11-03T15:16:57.446Z,95398.72
2022-11-03T15:19:25.100Z,95416.78
2022-11-03T15:21:52.765Z,95404.78
2022-11-03T15:27:08.186Z,95412.63
2022-11-03T15:29:38.419Z,95378.59
2022-11-03T15:32:06.937Z,95387.97
2022-11-03T15:34:34.629Z,95378.97
2022-11-03T15:37:02.339Z,95368.22
2022-11-03T15:39:30.633Z,95376.06
2022-11-03T15:42:00.073Z,95373.22
2022-11-03T15:44:27.774Z,95378.59
2022-11-03T15:46:56.816Z,95366.00
2022-11-03T15:49:24.595Z,95354.94
2022-11-03T15:51:52.423Z,95348.00
2022-11-03T15:54:20.115Z,95328.75
2022-11-03T15:56:47.888Z,95346.16
2022-11-03T15:59:15.578Z,95332.75
2022-11-03T16:01:43.390Z,95313.25
2022-11-03T16:04:12.844Z,95297.03
2022-11-03T16:07:06.094Z,95290.28
2022-11-03T16:09:29.582Z,95287.56
2022-11-03T16:11:57.308Z,95302.50
2022-11-03T16:14:25.071Z,95303.19
2022-11-03T16:16:52.883Z,95297.22
2022-11-03T16:19:21.868Z,95296.50
2022-11-03T16:21:49.583Z,95294.38
2022-11-03T16:24:17.433Z,95284.41
2022-11-03T16:26:45.216Z,95284.41
2022-11-03T16:29:12.905Z,95273.97
2022-11-03T16:31:40.568Z,95265.47
2022-11-03T16:34:08.303Z,95267.63
2022-11-03T16:36:39.212Z,95276.50
2022-11-03T16:39:06.850Z,95263.13
2022-11-03T16:41:36.417Z,95266.66
2022-11-03T16:44:04.180Z,95262.47
2022-11-03T16:46:31.869Z,95249.84
2022-11-03T16:51:32.259Z,95239.13
2022-11-03T16:54:01.377Z,95224.38
2022-11-03T16:56:29.089Z,95242.91
2022-11-03T16:58:56.775Z,95230.53
2022-11-03T17:01:24.584Z,95227.59
2022-11-03T17:03:53.943Z,95172.06
2022-11-03T17:06:21.600Z,95200.44
2022-11-03T17:08:53.476Z,95213.63
2022-11-03T17:11:36.742Z,95206.47
2022-11-03T17:14:06.026Z,95191.94
2022-11-03T17:16:34.267Z,95188.81
2022-11-03T17:19:02.002Z,95179.34
2022-11-03T17:21:29.681Z,95166.25
2022-11-03T17:23:59.239Z,95110.31
2022-11-03T17:26:37.756Z,95169.00
2022-11-03T17:29:14.686Z,95162.66
2022-11-03T17:31:42.525Z,95122.56
2022-11-03T17:34:12.953Z,95147.50
2022-11-03T17:36:41.232Z,95139.91
2022-11-03T17:39:09.610Z,95132.09
2022-11-03T17:41:38.616Z,95117.84
2022-11-03T17:44:11.977Z,95123.72
2022-11-03T17:46:39.762Z,95093.50
2022-11-03T17:49:07.540Z,95104.59
2022-11-03T17:51:36.672Z,95096.97
2022-11-03T17:54:08.058Z,95100.88
2022-11-03T17:56:36.417Z,95096.75
2022-11-03T17:59:05.698Z,95068.09
2022-11-03T18:01:33.603Z,95072.56
2022-11-03T18:04:02.657Z,95078.44
2022-11-03T18:06:30.773Z,95072.84
2022-11-03T18:08:59.402Z,95063.84
2022-11-03T18:11:48.787Z,95055.78
2022-11-03T18:14:18.279Z,95021.34
2022-11-03T18:16:46.514Z,95041.03
2022-11-03T18:19:16.053Z,95038.75
2022-11-03T18:21:44.003Z,95028.22
2022-11-03T18:24:14.135Z,95025.56
2022-11-03T18:26:42.389Z,95026.84
2022-11-03T18:29:10.406Z,95022.16
2022-11-03T18:31:42.307Z,95044.81
2022-11-03T18:34:15.291Z,95053.00
2022-11-03T18:36:43.203Z,95060.31
2022-11-03T18:39:15.444Z,95032.88
2022-11-03T18:41:43.996Z,95067.34
2022-11-03T18:44:16.415Z,95059.25
2022-11-03T18:46:45.744Z,95039.28
2022-11-03T18:49:13.740Z,94994.91
2022-11-03T18:51:45.761Z,95018.59
2022-11-03T18:54:15.362Z,94997.94
2022-11-03T18:56:43.389Z,94996.09
2022-11-03T18:59:19.587Z,94993.28
2022-11-03T19:01:48.751Z,94965.19
2022-11-03T19:04:16.823Z,94979.09
2022-11-03T19:06:47.122Z,94866.97
2022-11-03T19:09:19.563Z,94928.31
2022-11-03T19:11:49.793Z,94977.97
2022-11-03T19:14:24.504Z,94980.16
2022-11-03T19:17:22.491Z,94977.03
2022-11-03T19:19:42.298Z,94961.22
2022-11-03T19:22:14.349Z,94967.38
2022-11-03T19:24:46.121Z,94952.31
2022-11-03T19:27:17.717Z,94923.38
2022-11-03T19:29:47.703Z,94948.34
2022-11-03T19:32:20.261Z,94929.41
2022-11-03T19:34:52.516Z,94931.66
2022-11-03T19:37:20.190Z,94928.38
2022-11-03T19:39:48.389Z,94925.78
2022-11-03T19:42:28.454Z,94924.09
2022-11-03T19:44:57.873Z,94915.44
2022-11-03T19:47:31.606Z,94897.44
2022-11-03T19:50:02.343Z,94865.09
2022-11-03T19:52:31.610Z,94907.13
2022-11-03T19:55:02.820Z,94836.22
2022-11-03T19:57:34.172Z,94888.00
2022-11-03T20:00:03.009Z,94871.06
2022-11-03T20:02:37.019Z,94866.97
2022-11-03T20:05:05.290Z,94900.28
2022-11-03T20:07:33.108Z,94870.84
2022-11-03T20:10:02.811Z,94885.84
2022-11-03T20:12:31.582Z,94861.72
2022-11-03T20:14:59.373Z,94843.03
2022-11-03T20:17:27.242Z,94809.66
2022-11-03T20:19:56.404Z,94857.72
2022-11-03T20:22:30.151Z,94836.41
2022-11-03T20:25:00.306Z,94851.81
2022-11-03T20:27:28.401Z,94856.16
2022-11-03T20:29:56.381Z,94863.28
2022-11-03T20:32:24.103Z,94841.13
2022-11-03T20:34:51.746Z,94817.31
2022-11-03T20:37:21.615Z,94819.25
2022-11-03T20:39:49.949Z,94812.41
2022-11-03T20:42:21.536Z,94801.22
2022-11-03T20:44:49.327Z,94801.41
2022-11-03T20:47:18.038Z,94794.88
2022-11-03T20:49:46.466Z,94782.78
2022-11-03T20:52:15.302Z,94760.28
2022-11-03T20:54:44.593Z,94769.88
2022-11-03T20:57:13.660Z,94763.56
2022-11-03T20:59:41.949Z,94763.56
2022-11-03T21:02:12.884Z,94761.50
2022-11-03T21:04:40.976Z,94754.69
2022-11-03T21:07:12.200Z,94754.56
2022-11-03T21:09:40.098Z,94710.00
2022-11-03T21:12:13.063Z,94737.94
2022-11-03T21:15:03.929Z,94744.66
2022-11-03T21:17:49.161Z,94739.19
2022-11-03T21:20:16.976Z,94737.03
2022-11-03T21:22:53.925Z,94666.41
2022-11-03T21:25:23.953Z,94738.44
2022-11-03T21:27:54.230Z,94740.00
2022-11-03T21:30:23.518Z,94728.50
2022-11-03T21:32:51.410Z,94714.38
2022-11-03T21:35:21.426Z,94711.59
2022-11-03T21:37:49.379Z,94717.94
2022-11-03T21:40:17.649Z,94607.31
2022-11-03T21:43:02.649Z,94715.31
2022-11-03T21:45:31.858Z,94705.66
2022-11-03T21:48:17.524Z,94727.09
2022-11-03T21:50:45.737Z,94744.31
2022-11-03T21:53:13.677Z,94675.41
2022-11-03T21:55:41.699Z,94734.56
2022-11-03T21:58:09.675Z,94713.28
2022-11-03T22:00:38.835Z,94750.50
2022-11-03T22:03:06.967Z,94737.47
2022-11-03T22:05:35.027Z,94727.84
2022-11-03T22:08:02.752Z,94602.72
2022-11-03T22:10:30.429Z,94727.22
2022-11-03T22:12:58.232Z,94736.69
2022-11-03T22:15:43.363Z,94720.81
2022-11-03T22:18:12.847Z,94721.13
2022-11-03T22:20:58.295Z,94733.38
2022-11-03T22:23:43.627Z,94749.22
2022-11-03T22:26:30.255Z,94743.94
2022-11-03T22:29:16.989Z,94734.91
2022-11-03T22:31:44.745Z,94758.22
2022-11-03T22:34:31.667Z,94747.81
2022-11-03T22:36:59.637Z,94749.03
2022-11-03T22:39:44.877Z,94772.31
2022-11-03T22:42:31.172Z,94778.41
2022-11-03T22:45:16.307Z,94737.13
2022-11-03T22:47:44.016Z,94734.66
2022-11-03T22:50:13.032Z,94748.94
2022-11-03T22:52:40.811Z,94672.38
2022-11-03T22:55:07.752Z,94797.03
2022-11-03T22:57:35.416Z,94737.50
2022-11-03T23:00:05.592Z,94829.94
2022-11-03T23:02:33.506Z,94801.44
2022-11-03T23:05:01.291Z,94847.31
2022-11-03T23:07:32.382Z,94857.41
2022-11-03T23:10:04.576Z,94796.78
2022-11-03T23:12:32.839Z,94865.16
2022-11-03T23:15:18.062Z,94835.91
2022-11-03T23:18:03.197Z,94895.56
2022-11-03T23:20:56.699Z,94904.13
2022-11-03T23:23:43.094Z,94906.31
2022-11-03T23:26:11.128Z,94904.94
2022-11-03T23:28:38.870Z,94913.47
2022-11-03T23:31:07.151Z,94885.09
2022-11-03T23:33:35.513Z,94928.44
2022-11-03T23:36:07.784Z,94895.69
2022-11-03T23:38:38.051Z,94939.50
2022-11-03T23:41:07.855Z,94942.94
2022-11-03T23:43:35.885Z,94940.66
2022-11-03T23:46:20.701Z,94952.59
2022-11-03T23:48:48.878Z,94914.81
2022-11-03T23:51:17.390Z,94956.34
2022-11-03T23:53:47.071Z,94966.63
2022-11-03T23:56:34.074Z,94972.53
2022-11-03T23:59:01.848Z,94984.34
